createdAt,value
2018-10-06T00:00:00.763Z,100424.13
2018-10-06T00:01:04.237Z,100427.70
2018-10-06T00:02:08.195Z,100423.33
2018-10-06T00:03:11.580Z,100429.41
2018-10-06T00:04:15.032Z,100432.63
2018-10-06T00:05:18.528Z,100435.73
2018-10-06T00:06:21.977Z,100426.08
2018-10-06T00:07:25.822Z,100426.08
2018-10-06T00:08:29.260Z,100429.64
2018-10-06T00:09:32.700Z,100428.27
2018-10-06T00:10:36.217Z,100424.13
2018-10-06T00:11:39.859Z,100420.56
2018-10-06T00:12:43.340Z,100424.94
2018-10-06T00:13:46.795Z,100424.13
2018-10-06T00:14:50.291Z,100420.30
2018-10-06T00:15:53.692Z,100423.33
2018-10-06T00:16:57.203Z,100420.80
2018-10-06T00:18:00.663Z,100415.70
2018-10-06T00:19:04.146Z,100417.81
2018-10-06T00:20:08.897Z,100417.81
2018-10-06T00:21:12.296Z,100418.05
2018-10-06T00:22:15.851Z,100418.05
2018-10-06T00:23:19.346Z,100417.47
2018-10-06T00:24:22.757Z,100413.67
2018-10-06T00:25:26.139Z,100412.53
2018-10-06T00:26:29.577Z,100411.15
2018-10-06T00:27:33.032Z,100410.58
2018-10-06T00:28:36.798Z,100407.25
2018-10-06T00:29:40.764Z,100408.62
2018-10-06T00:30:44.182Z,100412.42
2018-10-06T00:31:49.225Z,100408.52
2018-10-06T00:32:52.688Z,100403.81
2018-10-06T00:33:56.180Z,100412.88
2018-10-06T00:34:59.707Z,100404.25
2018-10-06T00:36:03.148Z,100409.32
2018-10-06T00:37:06.847Z,100405.98
2018-10-06T00:38:10.316Z,100404.03
2018-10-06T00:39:13.809Z,100401.28
2018-10-06T00:40:17.260Z,100401.28
2018-10-06T00:41:20.780Z,100405.41
2018-10-06T00:42:24.261Z,100402.43
2018-10-06T00:43:27.761Z,100402.66
2018-10-06T00:44:31.304Z,100401.85
2018-10-06T00:45:34.736Z,100403.23
2018-10-06T00:46:38.297Z,100395.53
2018-10-06T00:47:41.802Z,100399.90
2018-10-06T00:48:45.250Z,100402.66
2018-10-06T00:49:48.893Z,100402.66
2018-10-06T00:50:52.317Z,100402.66
2018-10-06T00:51:55.813Z,100396.57
2018-10-06T00:52:59.241Z,100398.75
2018-10-06T00:54:02.663Z,100402.31
2018-10-06T00:55:06.150Z,100399.56
2018-10-06T00:56:09.608Z,100389.91
2018-10-06T00:57:13.057Z,100398.41
2018-10-06T00:58:16.563Z,100397.84
2018-10-06T00:59:20.200Z,100396.46
2018-10-06T01:00:23.636Z,100388.53
2018-10-06T01:01:27.057Z,100392.66
2018-10-06T01:02:30.441Z,100392.90
2018-10-06T01:03:33.879Z,100388.53
2018-10-06T01:04:37.368Z,100389.56
2018-10-06T01:05:40.847Z,100384.97
2018-10-06T01:06:44.265Z,100391.86
2018-10-06T01:07:47.700Z,100384.73
2018-10-06T01:08:51.198Z,100378.06
2018-10-06T01:09:54.625Z,100390.83
2018-10-06T01:10:58.288Z,100382.55
2018-10-06T01:12:01.668Z,100377.48
2018-10-06T01:13:05.095Z,100381.75
2018-10-06T01:14:08.561Z,100377.03
2018-10-06T01:15:11.995Z,100378.98
2018-10-06T01:16:15.553Z,100372.09
2018-10-06T01:17:18.959Z,100373.47
2018-10-06T01:18:23.732Z,100364.97
2018-10-06T01:19:27.442Z,100366.34
2018-10-06T01:21:33.366Z,100361.41
2018-10-06T01:22:36.770Z,100363.59
2018-10-06T01:23:40.237Z,100355.09
2018-10-06T01:24:43.649Z,100358.08
2018-10-06T01:25:47.142Z,100363.82
2018-10-06T01:26:50.892Z,100357.50
2018-10-06T01:27:54.442Z,100359.91
2018-10-06T01:28:57.867Z,100356.36
2018-10-06T01:30:01.278Z,100354.41
2018-10-06T01:31:04.718Z,100355.55
2018-10-06T01:32:08.162Z,100358.31
2018-10-06T01:33:11.580Z,100351.41
2018-10-06T01:34:15.009Z,100350.27
2018-10-06T01:35:18.473Z,100346.47
2018-10-06T01:36:22.322Z,100341.77
2018-10-06T01:37:25.779Z,100336.82
2018-10-06T01:38:29.213Z,100340.38
2018-10-06T01:39:32.907Z,100336.82
2018-10-06T01:40:36.407Z,100339.58
2018-10-06T01:41:39.847Z,100340.38
2018-10-06T01:42:43.251Z,100329.93
2018-10-06T01:43:46.655Z,100337.62
2018-10-06T01:44:50.108Z,100329.47
2018-10-06T01:45:53.523Z,100332.00
2018-10-06T01:46:56.942Z,100322.00
2018-10-06T01:48:00.382Z,100327.06
2018-10-06T01:49:03.773Z,100324.98
2018-10-06T01:50:07.979Z,100325.10
2018-10-06T01:51:11.440Z,100330.62
2018-10-06T01:52:14.902Z,100329.70
2018-10-06T01:53:18.427Z,100328.09
2018-10-06T01:54:21.845Z,100337.41
2018-10-06T01:55:25.277Z,100328.09
2018-10-06T01:56:28.761Z,100319.70
2018-10-06T01:57:32.200Z,100331.89
2018-10-06T01:58:35.609Z,100331.89
2018-10-06T01:59:39.032Z,100334.30
2018-10-06T02:00:42.680Z,100333.27
2018-10-06T02:01:46.115Z,100333.27
2018-10-06T02:02:49.586Z,100328.55
2018-10-06T02:03:53.045Z,100331.89
2018-10-06T02:04:56.464Z,100321.31
2018-10-06T02:05:59.914Z,100331.89
2018-10-06T02:07:03.352Z,100331.08
2018-10-06T02:08:06.781Z,100330.73
2018-10-06T02:09:10.237Z,100336.25
2018-10-06T02:10:13.869Z,100325.56
2018-10-06T02:11:17.306Z,100329.36
2018-10-06T02:12:20.711Z,100333.16
2018-10-06T02:13:24.133Z,100331.20
2018-10-06T02:14:27.622Z,100330.39
2018-10-06T02:15:31.260Z,100329.82
2018-10-06T02:16:34.677Z,100322.70
2018-10-06T02:17:38.107Z,100327.06
2018-10-06T02:18:41.526Z,100329.25
2018-10-06T02:19:44.962Z,100327.33
2018-10-06T02:20:48.461Z,100327.55
2018-10-06T02:21:51.887Z,100325.11
2018-10-06T02:22:55.430Z,100320.97
2018-10-06T02:23:58.844Z,100320.43
2018-10-06T02:25:02.258Z,100320.43
2018-10-06T02:26:05.894Z,100323.99
2018-10-06T02:27:09.313Z,100315.72
2018-10-06T02:28:12.856Z,100310.78
2018-10-06T02:29:16.247Z,100301.32
2018-10-06T02:30:19.918Z,100312.70
2018-10-06T02:31:23.362Z,100309.94
2018-10-06T02:32:26.822Z,100309.94
2018-10-06T02:33:30.242Z,100311.32
2018-10-06T02:34:33.662Z,100309.14
2018-10-06T02:35:37.980Z,100312.96
2018-10-06T02:36:41.453Z,100306.64
2018-10-06T02:37:44.833Z,100303.88
2018-10-06T02:38:48.302Z,100302.81
2018-10-06T02:39:51.749Z,100305.00
2018-10-06T02:40:55.185Z,100300.63
2018-10-06T02:41:58.597Z,100297.64
2018-10-06T02:43:02.042Z,100299.75
2018-10-06T02:44:05.506Z,100288.57
2018-10-06T02:45:09.838Z,100298.59
2018-10-06T02:46:13.350Z,100298.59
2018-10-06T02:47:16.799Z,100295.61
2018-10-06T02:48:20.266Z,100298.37
2018-10-06T02:49:23.704Z,100296.98
2018-10-06T02:50:27.134Z,100296.98
2018-10-06T02:51:30.597Z,100302.73
2018-10-06T02:52:34.025Z,100295.61
2018-10-06T02:53:37.497Z,100289.38
2018-10-06T02:54:40.918Z,100289.14
2018-10-06T02:55:44.336Z,100291.47
2018-10-06T02:56:47.813Z,100295.61
2018-10-06T02:57:51.274Z,100296.16
2018-10-06T02:58:54.729Z,100296.98
2018-10-06T02:59:58.185Z,100295.61
2018-10-06T03:01:01.602Z,100280.64
2018-10-06T03:02:05.041Z,100287.65
2018-10-06T03:03:08.455Z,100286.50
2018-10-06T03:04:11.903Z,100290.41
2018-10-06T03:05:15.367Z,100279.03
2018-10-06T03:06:19.045Z,100285.70
2018-10-06T03:07:22.482Z,100280.75
2018-10-06T03:08:25.898Z,100281.33
2018-10-06T03:09:29.321Z,100286.84
2018-10-06T03:10:32.763Z,100281.56
2018-10-06T03:11:36.253Z,100280.75
2018-10-06T03:12:39.724Z,100283.52
2018-10-06T03:13:43.176Z,100281.56
2018-10-06T03:14:46.717Z,100285.47
2018-10-06T03:15:50.142Z,100283.52
2018-10-06T03:16:53.580Z,100275.58
2018-10-06T03:17:57.046Z,100279.72
2018-10-06T03:19:00.521Z,100276.96
2018-10-06T03:20:03.990Z,100266.50
2018-10-06T03:21:07.704Z,100265.36
2018-10-06T03:22:11.479Z,100270.30
2018-10-06T03:23:14.983Z,100266.16
2018-10-06T03:24:18.436Z,100260.42
2018-10-06T03:25:21.884Z,100251.00
2018-10-06T03:26:25.332Z,100261.45
2018-10-06T03:27:28.817Z,100259.27
2018-10-06T03:28:32.279Z,100259.27
2018-10-06T03:29:35.758Z,100248.92
2018-10-06T03:30:39.190Z,100248.81
2018-10-06T03:31:42.579Z,100255.13
2018-10-06T03:32:46.034Z,100254.55
2018-10-06T03:33:49.508Z,100253.17
2018-10-06T03:34:53.004Z,100255.13
2018-10-06T03:35:56.447Z,100252.38
2018-10-06T03:36:59.875Z,100244.67
2018-10-06T03:38:03.314Z,100248.23
2018-10-06T03:39:07.362Z,100239.16
2018-10-06T03:40:10.774Z,100235.59
2018-10-06T03:41:14.179Z,100241.11
2018-10-06T03:42:18.388Z,100235.59
2018-10-06T03:43:21.835Z,100234.80
2018-10-06T03:44:25.262Z,100226.41
2018-10-06T03:45:28.684Z,100231.23
2018-10-06T03:46:32.080Z,100230.66
2018-10-06T03:47:35.538Z,100230.08
2018-10-06T03:48:38.947Z,100232.27
2018-10-06T03:49:42.356Z,100231.46
2018-10-06T03:50:45.864Z,100228.93
2018-10-06T03:51:49.363Z,100231.92
2018-10-06T03:52:53.221Z,100230.54
2018-10-06T03:53:56.721Z,100231.92
2018-10-06T03:55:00.161Z,100229.16
2018-10-06T03:56:03.639Z,100227.78
2018-10-06T03:57:07.035Z,100230.08
2018-10-06T03:58:10.456Z,100221.23
2018-10-06T03:59:14.169Z,100225.38
2018-10-06T04:00:17.657Z,100227.90
2018-10-06T04:01:21.147Z,100222.16
2018-10-06T04:02:24.600Z,100214.00
2018-10-06T04:03:28.244Z,100211.36
2018-10-06T04:04:31.654Z,100210.44
2018-10-06T04:05:35.081Z,100211.02
2018-10-06T04:06:38.481Z,100206.65
2018-10-06T04:07:42.016Z,100211.36
2018-10-06T04:08:45.429Z,100209.17
2018-10-06T04:09:48.842Z,100209.52
2018-10-06T04:10:52.502Z,100214.23
2018-10-06T04:11:55.943Z,100212.28
2018-10-06T04:12:59.358Z,100212.85
2018-10-06T04:14:02.772Z,100211.47
2018-10-06T04:15:06.948Z,100207.69
2018-10-06T04:16:10.399Z,100208.49
2018-10-06T04:17:13.857Z,100205.73
2018-10-06T04:18:17.294Z,100206.88
2018-10-06T04:19:20.889Z,100203.32
2018-10-06T04:20:24.362Z,100203.86
2018-10-06T04:21:31.951Z,100205.24
2018-10-06T04:22:35.367Z,100202.48
2018-10-06T04:23:38.763Z,100199.73
2018-10-06T04:24:42.209Z,100192.84
2018-10-06T04:25:45.657Z,100195.59
2018-10-06T04:26:49.113Z,100191.45
2018-10-06T04:27:52.608Z,100191.72
2018-10-06T04:28:56.045Z,100196.97
2018-10-06T04:29:59.469Z,100189.28
2018-10-06T04:31:02.921Z,100188.70
2018-10-06T04:32:06.411Z,100187.32
2018-10-06T04:33:09.844Z,100178.02
2018-10-06T04:34:13.257Z,100180.20
2018-10-06T04:35:16.723Z,100178.94
2018-10-06T04:36:20.204Z,100181.58
2018-10-06T04:37:23.666Z,100179.39
2018-10-06T04:38:27.075Z,100178.02
2018-10-06T04:39:30.455Z,100177.79
2018-10-06T04:40:33.896Z,100176.64
2018-10-06T04:41:37.377Z,100169.63
2018-10-06T04:42:40.947Z,100176.06
2018-10-06T04:43:44.359Z,100175.48
2018-10-06T04:44:47.839Z,100173.31
2018-10-06T04:45:51.442Z,100173.31
2018-10-06T04:46:54.906Z,100171.12
2018-10-06T04:47:58.358Z,100172.73
2018-10-06T04:49:01.844Z,100170.55
2018-10-06T04:50:05.340Z,100173.08
2018-10-06T04:51:08.783Z,100169.17
2018-10-06T04:52:12.206Z,100169.41
2018-10-06T04:53:15.803Z,100169.41
2018-10-06T04:54:19.233Z,100164.23
2018-10-06T04:55:22.697Z,100168.37
2018-10-06T04:56:26.164Z,100166.98
2018-10-06T04:57:29.586Z,100166.77
2018-10-06T04:58:33.037Z,100163.43
2018-10-06T04:59:36.423Z,100162.52
2018-10-06T05:00:39.901Z,100162.63
2018-10-06T05:01:43.342Z,100160.44
2018-10-06T05:02:46.762Z,100165.38
2018-10-06T05:03:50.398Z,100165.73
2018-10-06T05:04:53.857Z,100159.06
2018-10-06T05:05:57.348Z,100159.06
2018-10-06T05:07:00.812Z,100159.64
2018-10-06T05:08:04.260Z,100162.97
2018-10-06T05:09:08.744Z,100154.70
2018-10-06T05:10:12.157Z,100161.82
2018-10-06T05:11:15.591Z,100160.44
2018-10-06T05:12:18.974Z,100157.11
2018-10-06T05:13:22.835Z,100158.84
2018-10-06T05:14:26.293Z,100157.69
2018-10-06T05:15:29.735Z,100154.70
2018-10-06T05:16:33.158Z,100154.25
2018-10-06T05:17:36.583Z,100156.88
2018-10-06T05:18:40.070Z,100150.56
2018-10-06T05:19:43.766Z,100151.38
2018-10-06T05:20:47.225Z,100147.58
2018-10-06T05:21:50.697Z,100150.56
2018-10-06T05:22:54.148Z,100150.56
2018-10-06T05:23:57.591Z,100151.95
2018-10-06T05:25:01.084Z,100146.66
2018-10-06T05:26:04.688Z,100143.09
2018-10-06T05:27:08.287Z,100147.00
2018-10-06T05:28:11.713Z,100143.67
2018-10-06T05:29:15.163Z,100143.45
2018-10-06T05:30:19.507Z,100149.77
2018-10-06T05:31:22.973Z,100144.25
2018-10-06T05:32:26.395Z,100148.16
2018-10-06T05:33:30.153Z,100150.56
2018-10-06T05:34:33.573Z,100156.88
2018-10-06T05:35:37.013Z,100151.95
2018-10-06T05:36:40.410Z,100153.33
2018-10-06T05:37:43.854Z,100145.05
2018-10-06T05:38:47.306Z,100149.77
2018-10-06T05:39:50.769Z,100146.43
2018-10-06T05:40:54.382Z,100145.05
2018-10-06T05:41:57.848Z,100154.93
2018-10-06T05:43:01.289Z,100154.12
2018-10-06T05:44:04.779Z,100150.80
2018-10-06T05:45:08.289Z,100150.34
2018-10-06T05:46:11.702Z,100153.33
2018-10-06T05:47:15.141Z,100153.67
2018-10-06T05:48:18.630Z,100156.42
2018-10-06T05:49:22.096Z,100157.58
2018-10-06T05:50:25.572Z,100161.94
2018-10-06T05:51:29.038Z,100159.76
2018-10-06T05:52:32.455Z,100156.20
2018-10-06T05:53:35.909Z,100163.31
2018-10-06T05:54:39.345Z,100163.89
2018-10-06T05:55:42.803Z,100156.09
2018-10-06T05:56:46.245Z,100158.95
2018-10-06T05:57:49.766Z,100158.38
2018-10-06T05:58:53.280Z,100156.20
2018-10-06T05:59:56.682Z,100153.22
2018-10-06T06:01:00.128Z,100151.61
2018-10-06T06:02:03.643Z,100148.50
2018-10-06T06:03:07.054Z,100147.47
2018-10-06T06:04:10.468Z,100148.97
2018-10-06T06:05:15.210Z,100153.22
2018-10-06T06:06:18.673Z,100149.66
2018-10-06T06:07:22.308Z,100151.03
2018-10-06T06:08:25.779Z,100152.98
2018-10-06T06:09:29.382Z,100156.55
2018-10-06T06:10:32.889Z,100153.22
2018-10-06T06:11:36.593Z,100152.64
2018-10-06T06:12:40.342Z,100161.48
2018-10-06T06:13:44.034Z,100161.14
2018-10-06T06:14:47.529Z,100156.31
2018-10-06T06:15:50.963Z,100149.77
2018-10-06T06:16:54.590Z,100157.69
2018-10-06T06:17:57.981Z,100152.53
2018-10-06T06:19:02.176Z,100156.09
2018-10-06T06:20:05.786Z,100152.87
2018-10-06T06:21:11.701Z,100151.35
2018-10-06T06:22:17.776Z,100160.34
2018-10-06T06:23:21.916Z,100157.92
2018-10-06T06:24:25.926Z,100157.36
2018-10-06T06:25:29.394Z,100157.67
2018-10-06T06:26:32.880Z,100154.91
2018-10-06T06:27:36.316Z,100155.26
2018-10-06T06:28:39.822Z,100159.97
2018-10-06T06:29:43.476Z,100164.10
2018-10-06T06:30:47.533Z,100157.55
2018-10-06T06:31:51.609Z,100155.61
2018-10-06T06:32:55.715Z,100156.98
2018-10-06T06:33:59.406Z,100155.14
2018-10-06T06:35:02.888Z,100157.33
2018-10-06T06:36:06.639Z,100159.28
2018-10-06T06:37:10.598Z,100158.48
2018-10-06T06:38:14.279Z,100157.09
2018-10-06T06:39:18.248Z,100151.47
2018-10-06T06:40:22.020Z,100151.81
2018-10-06T06:41:25.484Z,100145.16
2018-10-06T06:42:28.940Z,100150.78
2018-10-06T06:43:32.403Z,100157.67
2018-10-06T06:44:36.731Z,100153.54
2018-10-06T06:45:41.070Z,100154.11
2018-10-06T06:46:44.548Z,100154.69
2018-10-06T06:47:48.033Z,100154.11
2018-10-06T06:48:51.502Z,100153.31
2018-10-06T06:49:55.085Z,100154.69
2018-10-06T06:50:58.577Z,100154.69
2018-10-06T06:52:05.612Z,100143.20
2018-10-06T06:53:09.167Z,100145.73
2018-10-06T06:54:12.610Z,100145.16
2018-10-06T06:55:16.027Z,100143.20
2018-10-06T06:56:19.510Z,100143.78
2018-10-06T06:57:22.986Z,100144.58
2018-10-06T06:58:26.531Z,100146.31
2018-10-06T06:59:29.957Z,100140.80
2018-10-06T07:00:33.383Z,100137.81
2018-10-06T07:01:37.725Z,100135.05
2018-10-06T07:02:41.214Z,100141.14
2018-10-06T07:03:44.763Z,100136.78
2018-10-06T07:04:48.245Z,100139.77
2018-10-06T07:05:51.754Z,100136.20
2018-10-06T07:06:55.157Z,100143.09
2018-10-06T07:07:58.689Z,100142.29
2018-10-06T07:09:02.153Z,100137.58
2018-10-06T07:10:05.641Z,100125.53
2018-10-06T07:11:09.099Z,100128.05
2018-10-06T07:12:12.674Z,100127.36
2018-10-06T07:13:16.118Z,100123.89
2018-10-06T07:14:20.264Z,100122.05
2018-10-06T07:15:23.729Z,100123.20
2018-10-06T07:16:27.355Z,100124.23
2018-10-06T07:17:31.896Z,100122.63
2018-10-06T07:18:35.657Z,100121.37
2018-10-06T07:19:39.102Z,100125.36
2018-10-06T07:20:42.537Z,100118.58
2018-10-06T07:21:45.974Z,100121.14
2018-10-06T07:22:49.636Z,100119.39
2018-10-06T07:23:53.093Z,100117.09
2018-10-06T07:24:56.541Z,100119.95
2018-10-06T07:25:59.990Z,100124.78
2018-10-06T07:27:03.484Z,100128.22
2018-10-06T07:28:06.942Z,100126.62
2018-10-06T07:29:10.369Z,100126.13
2018-10-06T07:30:13.770Z,100123.38
2018-10-06T07:31:17.823Z,100124.29
2018-10-06T07:32:21.251Z,100124.83
2018-10-06T07:33:24.823Z,100129.80
2018-10-06T07:34:28.223Z,100121.77
2018-10-06T07:36:34.094Z,100122.25
2018-10-06T07:37:37.530Z,100125.47
2018-10-06T07:38:41.041Z,100120.99
2018-10-06T07:39:44.469Z,100119.05
2018-10-06T07:40:47.995Z,100116.97
2018-10-06T07:41:51.408Z,100117.78
2018-10-06T07:42:54.835Z,100119.62
2018-10-06T07:43:59.301Z,100116.05
2018-10-06T07:45:02.869Z,100120.65
2018-10-06T07:46:06.309Z,100120.91
2018-10-06T07:47:09.749Z,100118.16
2018-10-06T07:48:13.211Z,100122.74
2018-10-06T07:49:16.661Z,100122.52
2018-10-06T07:50:20.165Z,100115.86
2018-10-06T07:51:23.614Z,100116.89
2018-10-06T07:52:27.071Z,100114.94
2018-10-06T07:53:30.503Z,100115.52
2018-10-06T07:54:33.976Z,100111.61
2018-10-06T07:55:37.423Z,100118.16
2018-10-06T07:56:41.025Z,100114.59
2018-10-06T07:57:44.479Z,100112.64
2018-10-06T07:58:49.287Z,100113.67
2018-10-06T07:59:53.995Z,100115.05
2018-10-06T08:00:58.121Z,100110.34
2018-10-06T08:02:01.958Z,100111.14
2018-10-06T08:03:05.375Z,100105.63
2018-10-06T08:04:09.149Z,100106.66
2018-10-06T08:05:12.608Z,100108.63
2018-10-06T08:06:16.133Z,100111.61
2018-10-06T08:07:19.760Z,100108.05
2018-10-06T08:08:23.248Z,100105.52
2018-10-06T08:09:26.831Z,100100.00
2018-10-06T08:10:30.649Z,100101.84
2018-10-06T08:11:34.239Z,100099.66
2018-10-06T08:12:37.686Z,100099.89
2018-10-06T08:13:41.152Z,100102.91
2018-10-06T08:14:44.610Z,100096.59
2018-10-06T08:15:51.125Z,100093.27
2018-10-06T08:16:55.613Z,100096.81
2018-10-06T08:17:59.029Z,100095.67
2018-10-06T08:19:02.471Z,100097.05
2018-10-06T08:20:05.963Z,100097.28
2018-10-06T08:21:09.454Z,100095.67
2018-10-06T08:22:12.921Z,100095.90
2018-10-06T08:23:16.622Z,100097.50
2018-10-06T08:24:20.735Z,100087.17
2018-10-06T08:25:24.145Z,100090.04
2018-10-06T08:26:27.605Z,100089.69
2018-10-06T08:27:31.071Z,100089.47
2018-10-06T08:28:34.523Z,100087.73
2018-10-06T08:29:38.289Z,100081.08
2018-10-06T08:30:41.699Z,100086.59
2018-10-06T08:31:45.125Z,100086.02
2018-10-06T08:32:48.596Z,100092.91
2018-10-06T08:33:52.055Z,100088.55
2018-10-06T08:34:55.641Z,100087.63
2018-10-06T08:35:59.158Z,100091.75
2018-10-06T08:37:02.644Z,100094.73
2018-10-06T08:38:06.079Z,100091.98
2018-10-06T08:39:09.946Z,100091.52
2018-10-06T08:40:13.404Z,100087.38
2018-10-06T08:41:16.962Z,100092.20
2018-10-06T08:42:20.418Z,100096.71
2018-10-06T08:43:23.850Z,100095.33
2018-10-06T08:44:27.267Z,100098.31
2018-10-06T08:45:30.737Z,100096.14
2018-10-06T08:46:34.145Z,100093.38
2018-10-06T08:47:37.597Z,100095.79
2018-10-06T08:48:41.247Z,100093.03
2018-10-06T08:49:44.811Z,100093.84
2018-10-06T08:50:48.316Z,100096.59
2018-10-06T08:51:51.794Z,100092.91
2018-10-06T08:52:55.227Z,100099.80
2018-10-06T08:53:58.621Z,100093.14
2018-10-06T08:55:02.086Z,100090.16
2018-10-06T08:56:05.734Z,100089.58
2018-10-06T08:57:09.120Z,100093.38
2018-10-06T08:58:12.569Z,100093.02
2018-10-06T08:59:16.042Z,100095.78
2018-10-06T09:00:19.516Z,100092.45
2018-10-06T09:01:23.849Z,100086.93
2018-10-06T09:02:27.252Z,100087.16
2018-10-06T09:03:30.682Z,100085.20
2018-10-06T09:04:34.118Z,100084.86
2018-10-06T09:05:37.532Z,100072.22
2018-10-06T09:06:40.969Z,100075.20
2018-10-06T09:07:44.421Z,100069.69
2018-10-06T09:08:48.069Z,100071.30
2018-10-06T09:09:51.618Z,100077.04
2018-10-06T09:10:55.078Z,100063.61
2018-10-06T09:11:58.607Z,100075.11
2018-10-06T09:13:02.034Z,100075.11
2018-10-06T09:14:05.530Z,100071.53
2018-10-06T09:15:09.336Z,100070.41
2018-10-06T09:16:12.796Z,100067.65
2018-10-06T09:17:16.253Z,100066.50
2018-10-06T09:18:19.822Z,100066.14
2018-10-06T09:19:23.263Z,100069.58
2018-10-06T09:20:26.706Z,100072.69
2018-10-06T09:21:30.147Z,100073.50
2018-10-06T09:22:33.599Z,100070.16
2018-10-06T09:23:36.995Z,100067.41
2018-10-06T09:24:40.463Z,100072.12
2018-10-06T09:25:44.022Z,100065.22
2018-10-06T09:26:47.455Z,100067.41
2018-10-06T09:27:50.913Z,100065.45
2018-10-06T09:28:54.512Z,100059.94
2018-10-06T09:29:59.535Z,100062.11
2018-10-06T09:31:04.169Z,100064.30
2018-10-06T09:32:08.514Z,100059.59
2018-10-06T09:33:12.656Z,100059.01
2018-10-06T09:34:17.111Z,100059.59
2018-10-06T09:35:22.018Z,100056.12
2018-10-06T09:36:26.484Z,100057.50
2018-10-06T09:37:30.778Z,100055.55
2018-10-06T09:38:35.338Z,100054.97
2018-10-06T09:39:38.820Z,100052.22
2018-10-06T09:40:42.439Z,100050.27
2018-10-06T09:41:45.893Z,100052.44
2018-10-06T09:42:49.482Z,100045.90
2018-10-06T09:43:52.946Z,100044.30
2018-10-06T09:44:56.412Z,100051.20
2018-10-06T09:45:59.989Z,100055.11
2018-10-06T09:47:03.512Z,100052.92
2018-10-06T09:48:07.015Z,100048.88
2018-10-06T09:49:10.414Z,100051.77
2018-10-06T09:50:14.315Z,100052.00
2018-10-06T09:51:17.846Z,100053.60
2018-10-06T09:52:21.350Z,100049.24
2018-10-06T09:53:24.921Z,100045.55
2018-10-06T09:54:28.361Z,100050.50
2018-10-06T09:55:31.838Z,100051.65
2018-10-06T09:56:35.489Z,100044.30
2018-10-06T09:57:38.899Z,100047.39
2018-10-06T09:58:42.366Z,100049.56
2018-10-06T09:59:45.820Z,100046.01
2018-10-06T10:00:54.642Z,100053.70
2018-10-06T10:02:03.451Z,100042.90
2018-10-06T10:03:12.305Z,100047.61
2018-10-06T10:04:17.124Z,100042.33
2018-10-06T10:05:26.000Z,100043.70
2018-10-06T10:06:29.423Z,100039.56
2018-10-06T10:07:34.990Z,100039.79
2018-10-06T10:08:38.481Z,100037.96
2018-10-06T10:09:41.987Z,100032.09
2018-10-06T10:10:45.781Z,100038.41
2018-10-06T10:11:49.255Z,100029.91
2018-10-06T10:12:52.869Z,100033.12
2018-10-06T10:13:56.365Z,100030.14
2018-10-06T10:14:59.909Z,100031.97
2018-10-06T10:16:03.338Z,100028.08
2018-10-06T10:17:07.061Z,100028.89
2018-10-06T10:18:10.669Z,100023.14
2018-10-06T10:19:14.075Z,100019.55
2018-10-06T10:20:17.516Z,100018.30
2018-10-06T10:21:21.062Z,100020.26
2018-10-06T10:22:24.792Z,100013.36
2018-10-06T10:23:28.252Z,100013.62
2018-10-06T10:24:31.648Z,100010.06
2018-10-06T10:25:35.121Z,100011.66
2018-10-06T10:26:38.624Z,100007.53
2018-10-06T10:27:42.054Z,100006.15
2018-10-06T10:28:45.515Z,100005.80
2018-10-06T10:29:49.077Z,100004.19
2018-10-06T10:30:52.770Z,100003.03
2018-10-06T10:31:56.320Z,100004.64
2018-10-06T10:32:59.911Z,100002.11
2018-10-06T10:34:03.351Z,100005.67
2018-10-06T10:35:07.024Z,100010.61
2018-10-06T10:36:10.549Z,100003.94
2018-10-06T10:37:14.186Z,99996.81
2018-10-06T10:38:17.696Z,100004.16
2018-10-06T10:39:21.227Z,99999.00
2018-10-06T10:40:24.785Z,99997.84
2018-10-06T10:41:28.306Z,100000.25
2018-10-06T10:42:31.829Z,99998.87
2018-10-06T10:43:35.273Z,99993.92
2018-10-06T10:44:38.806Z,99995.53
2018-10-06T10:45:42.505Z,99997.84
2018-10-06T10:46:45.999Z,99995.88
2018-10-06T10:47:49.967Z,99993.58
2018-10-06T10:48:53.607Z,99989.21
2018-10-06T10:49:57.312Z,99988.41
2018-10-06T10:51:00.899Z,99990.59
2018-10-06T10:52:04.316Z,99988.54
2018-10-06T10:53:07.732Z,99990.81
2018-10-06T10:54:11.435Z,99990.02
2018-10-06T10:55:14.993Z,99989.66
2018-10-06T10:56:18.427Z,99983.34
2018-10-06T10:57:21.908Z,99977.59
2018-10-06T10:58:26.154Z,99981.16
2018-10-06T10:59:29.690Z,99977.25
2018-10-06T11:00:33.237Z,99969.80
2018-10-06T11:01:36.630Z,99975.38
2018-10-06T11:02:40.206Z,99979.30
2018-10-06T11:03:43.714Z,99981.16
2018-10-06T11:04:47.232Z,99981.83
2018-10-06T11:05:50.740Z,99970.70
2018-10-06T11:06:54.277Z,99971.86
2018-10-06T11:07:57.736Z,99968.42
2018-10-06T11:09:01.154Z,99969.36
2018-10-06T11:10:04.774Z,99969.94
2018-10-06T11:11:08.346Z,99971.45
2018-10-06T11:12:11.751Z,99975.91
2018-10-06T11:13:15.398Z,99968.30
2018-10-06T11:14:19.116Z,99969.69
2018-10-06T11:15:22.698Z,99964.42
2018-10-06T11:16:26.225Z,99963.49
2018-10-06T11:17:29.723Z,99967.19
2018-10-06T11:18:33.260Z,99962.82
2018-10-06T11:19:36.681Z,99960.99
2018-10-06T11:20:40.325Z,99964.55
2018-10-06T11:21:43.796Z,99964.10
2018-10-06T11:22:47.244Z,99960.29
2018-10-06T11:23:50.884Z,99957.53
2018-10-06T11:24:54.939Z,99956.51
2018-10-06T11:25:58.508Z,99956.51
2018-10-06T11:27:02.291Z,99954.33
2018-10-06T11:28:05.750Z,99952.72
2018-10-06T11:29:09.249Z,99943.64
2018-10-06T11:30:12.968Z,99946.98
2018-10-06T11:31:16.865Z,99941.02
2018-10-06T11:32:20.873Z,99946.53
2018-10-06T11:33:24.682Z,99940.22
2018-10-06T11:34:28.204Z,99936.08
2018-10-06T11:35:31.656Z,99937.02
2018-10-06T11:36:35.354Z,99935.05
2018-10-06T11:37:39.106Z,99929.89
2018-10-06T11:38:42.507Z,99930.70
2018-10-06T11:39:46.031Z,99933.23
2018-10-06T11:40:49.536Z,99930.47
2018-10-06T11:41:54.548Z,99933.00
2018-10-06T11:42:58.068Z,99926.91
2018-10-06T11:44:01.536Z,99925.89
2018-10-06T11:45:05.021Z,99924.51
2018-10-06T11:46:08.586Z,99918.77
2018-10-06T11:47:12.028Z,99919.57
2018-10-06T11:48:15.479Z,99920.14
2018-10-06T11:49:19.265Z,99917.39
2018-10-06T11:50:22.854Z,99919.89
2018-10-06T11:51:26.261Z,99917.97
2018-10-06T11:52:29.810Z,99915.75
2018-10-06T11:53:33.240Z,99910.82
2018-10-06T11:54:36.726Z,99908.87
2018-10-06T11:55:40.143Z,99910.25
2018-10-06T11:56:43.598Z,99903.35
2018-10-06T11:57:47.524Z,99903.70
2018-10-06T11:58:51.574Z,99907.27
2018-10-06T11:59:55.341Z,99899.57
2018-10-06T12:00:58.812Z,99897.16
2018-10-06T12:02:02.244Z,99897.16
2018-10-06T12:03:05.822Z,99893.25
2018-10-06T12:04:09.275Z,99894.41
2018-10-06T12:05:12.757Z,99893.03
2018-10-06T12:06:16.245Z,99893.03
2018-10-06T12:07:20.364Z,99888.67
2018-10-06T12:08:23.880Z,99890.27
2018-10-06T12:09:27.353Z,99886.94